Time;durP1;ratioP1;P1;durP2;ratioP2;P2;SDS_P1;SDS_P2;PMS_P1;PMS_P2;Temp;Humidity;BMP_temperature;BMP_pressure;BME280_temperature;BME280_humidity;BME280_pressure;Samples;Min_cycle;Max_cycle;Signal;HPM_P1;HPM_P2
2020/12/20 00:01:02;;;;;;;58.17;25.65;;;;;;;1.94;88.45;101409.33;1651573;86;25855;-49
2020/12/20 00:03:29;;;;;;;54.10;25.80;;;;;;;1.97;88.49;101412.89;1651112;86;25862;-50
2020/12/20 00:05:56;;;;;;;53.58;26.37;;;;;;;1.96;88.42;101411.25;1651147;86;26073;-50
2020/12/20 00:08:23;;;;;;;53.73;25.50;;;;;;;1.94;88.43;101406.16;1626536;86;26117;-52
2020/12/20 00:10:49;;;;;;;56.65;25.27;;;;;;;1.94;88.45;101403.98;1651358;86;25925;-51
2020/12/20 00:13:17;;;;;;;49.73;25.60;;;;;;;1.94;88.41;101404.83;1651273;86;25800;-52
2020/12/20 00:15:48;;;;;;;50.67;24.23;;;;;;;1.94;88.52;101396.82;1651599;86;25799;-51
2020/12/20 00:18:18;;;;;;;54.90;26.52;;;;;;;1.94;88.46;101395.98;1651384;86;26219;-51
2020/12/20 00:20:45;;;;;;;53.65;24.37;;;;;;;1.94;88.50;101394.66;1651647;86;25818;-52
2020/12/20 00:23:12;;;;;;;56.70;26.33;;;;;;;1.94;88.45;101398.66;1651559;86;26408;-47
2020/12/20 00:25:39;;;;;;;54.03;25.97;;;;;;;1.93;88.48;101387.17;1652047;86;25699;-50
2020/12/20 00:28:06;;;;;;;63.55;28.40;;;;;;;1.92;88.50;101396.20;1651663;86;25807;-51
2020/12/20 00:30:33;;;;;;;58.17;26.10;;;;;;;1.91;88.50;101391.92;1652395;86;25756;-50
2020/12/20 00:32:59;;;;;;;60.70;27.65;;;;;;;1.92;88.55;101390.06;1652273;86;25631;-52
2020/12/20 00:35:26;;;;;;;53.73;27.17;;;;;;;1.94;88.63;101393.31;1652365;86;26302;-51
2020/12/20 00:37:53;;;;;;;63.42;26.97;;;;;;;1.95;88.66;101395.77;1652644;86;26362;-50
2020/12/20 00:40:20;;;;;;;63.63;27.07;;;;;;;1.97;88.62;101395.55;1652608;86;27213;-49
2020/12/20 00:42:47;;;;;;;53.48;25.82;;;;;;;1.97;88.59;101399.55;1652542;86;25695;-52
2020/12/20 00:45:14;;;;;;;55.00;25.70;;;;;;;1.96;88.61;101397.41;1652491;86;25693;-52
2020/12/20 00:47:41;;;;;;;57.38;26.25;;;;;;;1.98;88.63;101401.19;1652513;86;25956;-52
2020/12/20 00:50:08;;;;;;;58.85;25.32;;;;;;;1.91;88.61;101393.27;1653069;86;25673;-52
2020/12/20 00:52:34;;;;;;;64.42;27.52;;;;;;;1.97;88.62;101401.69;1652949;86;25946;-52
2020/12/20 00:55:01;;;;;;;50.35;25.55;;;;;;;1.98;88.66;101401.99;1653018;86;25729;-50
2020/12/20 00:57:29;;;;;;;57.83;25.50;;;;;;;1.97;88.62;101400.35;1653082;86;25636;-50
2020/12/20 00:59:55;;;;;;;52.85;25.27;;;;;;;1.98;88.63;101404.66;1652798;86;25709;-53
2020/12/20 01:02:22;;;;;;;58.92;25.95;;;;;;;1.99;88.64;101398.80;1652895;86;25604;-49
2020/12/20 01:04:49;;;;;;;57.53;26.10;;;;;;;2.00;88.68;101389.77;1652927;86;27128;-51
2020/12/20 01:07:16;;;;;;;55.10;26.17;;;;;;;2.00;88.73;101382.56;1652656;86;25633;-50
2020/12/20 01:09:42;;;;;;;52.05;26.12;;;;;;;2.02;88.74;101386.34;1652994;86;25675;-50
2020/12/20 01:12:09;;;;;;;49.18;23.70;;;;;;;2.04;88.77;101386.42;1652947;86;25731;-50
2020/12/20 01:14:35;;;;;;;54.42;24.32;;;;;;;2.07;88.71;101388.34;1653391;86;25256;-51
2020/12/20 01:17:03;;;;;;;56.10;25.48;;;;;;;2.08;88.67;101393.96;1652585;86;27089;-49
2020/12/20 01:19:30;;;;;;;56.35;25.65;;;;;;;2.08;88.63;101396.63;1653279;86;25659;-51
2020/12/20 01:21:57;;;;;;;57.67;25.05;;;;;;;2.10;88.66;101407.92;1653486;86;25685;-51
2020/12/20 01:24:23;;;;;;;58.28;25.20;;;;;;;2.10;88.66;101400.72;1628214;86;25708;-50
2020/12/20 01:26:50;;;;;;;54.85;25.20;;;;;;;2.12;88.63;101397.30;1653491;86;25697;-59
2020/12/20 01:29:16;;;;;;;58.85;25.52;;;;;;;2.13;88.62;101392.27;1653381;86;26268;-56
2020/12/20 01:31:43;;;;;;;57.90;25.05;;;;;;;2.13;88.61;101392.27;1653371;86;25640;-60
2020/12/20 01:34:10;;;;;;;55.38;23.42;;;;;;;2.12;88.58;101390.63;1653389;86;25648;-50
2020/12/20 01:36:36;;;;;;;57.08;24.98;;;;;;;2.12;88.55;101391.16;1653285;86;25634;-60
2020/12/20 01:39:03;;;;;;;54.55;25.08;;;;;;;2.13;88.61;101391.43;1653476;86;25613;-53
2020/12/20 01:41:30;;;;;;;60.60;25.95;;;;;;;2.14;88.59;101389.87;1653444;86;26263;-51
2020/12/20 01:43:57;;;;;;;56.28;27.40;;;;;;;2.12;88.53;101385.81;1653312;86;25758;-48
2020/12/20 01:46:24;;;;;;;57.38;26.70;;;;;;;2.11;88.57;101381.00;1653469;86;25630;-47
2020/12/20 01:48:52;;;;;;;57.98;26.62;;;;;;;2.11;88.60;101384.17;1653362;84;25765;-53
2020/12/20 01:51:20;;;;;;;59.30;28.45;;;;;;;2.10;88.67;101386.03;1653371;86;25746;-47
2020/12/20 01:53:47;;;;;;;54.35;27.05;;;;;;;2.12;88.77;101383.14;1653385;86;26800;-56
2020/12/20 01:56:14;;;;;;;62.60;26.33;;;;;;;2.12;88.76;101381.28;1653342;86;25847;-50
2020/12/20 01:58:40;;;;;;;60.38;26.50;;;;;;;2.12;88.77;101378.61;1653472;86;25629;-49
2020/12/20 02:01:08;;;;;;;65.80;29.75;;;;;;;2.12;88.77;101375.14;1653356;86;25661;-59
2020/12/20 02:03:36;;;;;;;67.77;27.87;;;;;;;2.13;88.85;101376.25;1653643;86;25626;-48
2020/12/20 02:06:04;;;;;;;68.57;28.25;;;;;;;2.15;88.89;101370.16;1653342;86;26240;-51
2020/12/20 02:08:32;;;;;;;64.87;26.33;;;;;;;2.15;88.86;101366.69;1653302;86;25679;-49
2020/12/20 02:11:13;;;;;;;65.20;27.13;;;;;;;2.15;88.87;101369.35;1653410;86;25663;-47
2020/12/20 02:13:48;;;;;;;63.23;26.68;;;;;;;2.14;88.90;101370.38;1652840;86;25764;-52
2020/12/20 02:16:23;;;;;;;61.88;27.07;;;;;;;2.16;88.76;101371.80;1847886;75;33376;-49
2020/12/20 02:18:52;;;;;;;67.00;27.50;;;;;;;2.07;88.75;101369.66;1817875;78;25729;-50
2020/12/20 02:21:23;;;;;;;66.75;28.17;;;;;;;2.07;88.92;101365.66;1817986;78;27286;-60
2020/12/20 02:23:50;;;;;;;58.10;26.75;;;;;;;2.09;88.91;101376.92;1817909;78;25634;-47
2020/12/20 02:26:21;;;;;;;61.92;26.42;;;;;;;2.05;88.86;101368.02;1817915;78;25746;-49
2020/12/20 02:28:52;;;;;;;60.45;25.35;;;;;;;2.05;88.89;101365.36;1817972;78;25622;-59
2020/12/20 02:31:20;;;;;;;60.70;25.65;;;;;;;2.02;88.83;101370.33;1818080;78;25650;-48
2020/12/20 02:33:47;;;;;;;61.50;25.72;;;;;;;2.01;88.83;101359.34;1817863;78;25892;-49
2020/12/20 02:36:14;;;;;;;69.72;27.25;;;;;;;2.01;88.98;101360.19;1817868;78;25585;-52
2020/12/20 02:38:42;;;;;;;67.00;25.95;;;;;;;1.99;88.90;101359.60;1817961;78;25613;-52
2020/12/20 02:41:08;;;;;;;66.55;27.10;;;;;;;1.97;88.99;101366.19;1817865;78;25697;-47
2020/12/20 02:43:35;;;;;;;65.60;26.02;;;;;;;1.96;89.00;101361.88;1818054;78;25590;-50
2020/12/20 02:46:03;;;;;;;62.90;28.30;;;;;;;1.94;89.07;101364.80;1818036;78;25892;-53
2020/12/20 02:48:29;;;;;;;64.80;26.82;;;;;;;1.93;89.02;101366.36;1817844;78;25606;-48
2020/12/20 02:50:56;;;;;;;65.32;27.42;;;;;;;1.92;89.09;101365.52;1817893;78;25658;-49
2020/12/20 02:53:22;;;;;;;68.07;28.60;;;;;;;1.94;89.12;101368.80;1817876;78;26239;-49
2020/12/20 02:55:49;;;;;;;69.25;28.42;;;;;;;1.93;89.22;101364.49;1817912;78;25665;-48
2020/12/20 02:58:16;;;;;;;74.82;29.57;;;;;;;1.95;89.19;101362.94;1817953;78;26326;-52
2020/12/20 03:00:43;;;;;;;73.10;28.67;;;;;;;1.95;89.14;101357.07;1817779;78;25605;-50
2020/12/20 03:03:10;;;;;;;75.20;29.00;;;;;;;1.94;89.09;101352.80;1817929;78;25705;-54
2020/12/20 03:05:37;;;;;;;77.20;28.77;;;;;;;1.92;89.07;101352.18;1817896;78;25649;-48
2020/12/20 03:08:05;;;;;;;75.65;29.95;;;;;;;1.91;89.05;101355.91;1817838;78;25574;-51
2020/12/20 03:10:32;;;;;;;72.60;28.98;;;;;;;1.89;89.00;101354.48;1817934;78;25759;-51
2020/12/20 03:12:59;;;;;;;68.97;28.10;;;;;;;1.89;89.04;101354.48;1817830;78;25634;-50
2020/12/20 03:15:26;;;;;;;74.37;29.57;;;;;;;1.87;89.11;101358.70;1817820;78;25595;-51
2020/12/20 03:17:52;;;;;;;73.45;29.12;;;;;;;1.85;89.07;101344.78;1817896;78;25618;-50
2020/12/20 03:20:19;;;;;;;73.22;29.92;;;;;;;1.85;89.10;101352.79;1796773;78;26333;-50
2020/12/20 03:22:45;;;;;;;70.85;28.02;;;;;;;1.83;89.13;101351.67;1763222;81;26646;-50
2020/12/20 03:25:12;;;;;;;67.25;28.07;;;;;;;1.82;89.12;101350.06;1763135;81;25632;-48
2020/12/20 03:27:38;;;;;;;72.87;29.20;;;;;;;1.80;89.03;101342.78;1762666;81;25709;-50
2020/12/20 03:30:06;;;;;;;67.62;26.35;;;;;;;1.78;89.13;101342.20;1762601;81;25604;-49
2020/12/20 03:32:33;;;;;;;71.62;30.57;;;;;;;1.79;89.13;101345.70;1762668;81;25694;-56
2020/12/20 03:34:59;;;;;;;70.75;28.75;;;;;;;1.78;89.17;101342.73;1762620;81;25961;-51
2020/12/20 03:37:26;;;;;;;67.08;27.62;;;;;;;1.78;89.15;101340.86;1762526;81;25667;-52
2020/12/20 03:39:53;;;;;;;67.37;28.23;;;;;;;1.79;89.18;101339.03;1762675;81;25606;-56
2020/12/20 03:42:20;;;;;;;72.87;27.52;;;;;;;1.79;89.10;101345.70;1762632;81;25945;-51
2020/12/20 03:44:47;;;;;;;76.85;28.52;;;;;;;1.76;89.11;101340.28;1762629;81;25664;-48
2020/12/20 03:47:13;;;;;;;71.50;29.25;;;;;;;1.77;89.21;101331.75;1762764;81;26130;-50
2020/12/20 03:49:40;;;;;;;67.65;29.05;;;;;;;1.78;89.23;101334.72;1762556;81;25599;-50
2020/12/20 03:52:06;;;;;;;75.10;30.15;;;;;;;1.78;89.24;101329.39;1762528;81;25662;-51
2020/12/20 03:54:33;;;;;;;73.15;29.42;;;;;;;1.80;89.29;101334.78;1762573;81;25567;-51
2020/12/20 03:57:00;;;;;;;71.55;28.47;;;;;;;1.81;89.26;101333.75;1762709;81;25577;-51
2020/12/20 03:59:26;;;;;;;68.22;29.57;;;;;;;1.81;89.31;101333.75;1762618;81;26129;-52
2020/12/20 04:01:53;;;;;;;73.52;30.95;;;;;;;1.81;89.26;101338.28;1762568;81;25571;-52
2020/12/20 04:04:19;;;;;;;71.28;29.07;;;;;;;1.81;89.28;101344.42;1762648;81;26412;-51
2020/12/20 04:06:46;;;;;;;69.80;28.67;;;;;;;1.82;89.30;101339.89;1762492;81;25724;-49
2020/12/20 04:09:13;;;;;;;67.27;28.80;;;;;;;1.83;89.29;101344.20;1762646;81;25620;-51
2020/12/20 04:11:40;;;;;;;69.30;28.00;;;;;;;1.85;89.32;101350.12;1762626;81;26218;-50
2020/12/20 04:14:07;;;;;;;69.92;28.77;;;;;;;1.85;89.29;101343.45;1762467;81;25644;-49
2020/12/20 04:16:33;;;;;;;78.90;30.05;;;;;;;1.87;89.32;101348.03;1759304;81;25629;-50
2020/12/20 04:19:00;;;;;;;71.05;29.80;;;;;;;1.87;89.25;101350.70;1758511;81;25637;-49
2020/12/20 04:21:26;;;;;;;64.05;28.12;;;;;;;1.88;89.29;101359.02;1757945;79;25735;-49
2020/12/20 04:23:53;;;;;;;73.83;29.72;;;;;;;1.90;89.29;101357.46;1758620;81;27224;-48
2020/12/20 04:26:19;;;;;;;67.12;28.32;;;;;;;1.91;89.32;101356.40;1758382;81;25834;-51
2020/12/20 04:28:46;;;;;;;69.55;29.80;;;;;;;1.93;89.36;101356.48;1737101;81;25748;-49
2020/12/20 04:31:12;;;;;;;69.27;29.20;;;;;;;1.94;89.26;101359.96;1758564;81;25634;-49
2020/12/20 04:33:39;;;;;;;63.20;29.00;;;;;;;1.94;89.23;101358.13;1758491;81;25569;-48
2020/12/20 04:36:08;;;;;;;65.62;27.77;;;;;;;1.95;89.19;101351.73;1758552;81;28141;-48
2020/12/20 04:38:34;;;;;;;63.33;28.87;;;;;;;1.96;89.23;101362.72;1758553;81;25667;-46
2020/12/20 04:41:02;;;;;;;61.60;28.35;;;;;;;1.96;89.22;101360.55;1758606;81;25582;-47
2020/12/20 04:43:29;;;;;;;64.65;27.58;;;;;;;1.96;89.14;101356.05;1758545;81;25642;-46
2020/12/20 04:45:57;;;;;;;67.67;27.93;;;;;;;1.94;89.08;101353.29;1758607;81;25660;-50
2020/12/20 04:48:29;;;;;;;67.00;26.87;;;;;;;1.94;89.13;101354.12;1758497;81;27250;-51
2020/12/20 04:50:58;;;;;;;64.30;28.02;;;;;;;1.93;89.13;101351.68;1757742;81;25604;-54
2020/12/20 04:53:26;;;;;;;64.03;28.83;;;;;;;1.94;89.25;101355.46;1758782;81;25740;-51
2020/12/20 04:55:54;;;;;;;60.55;27.22;;;;;;;2.10;89.30;101377.23;1758435;81;25602;-50
2020/12/20 04:58:21;;;;;;;66.22;29.05;;;;;;;1.94;89.29;101351.95;1758608;81;25699;-49
2020/12/20 05:00:48;;;;;;;67.82;27.50;;;;;;;1.96;89.32;101351.20;1758565;81;26676;-49
2020/12/20 05:03:15;;;;;;;63.75;28.12;;;;;;;1.95;89.25;101350.93;1758433;81;25672;-47
2020/12/20 05:05:41;;;;;;;60.70;26.17;;;;;;;1.94;89.26;101354.12;1758538;81;25529;-59
2020/12/20 05:08:09;;;;;;;60.20;26.10;;;;;;;1.93;89.25;101364.49;1758457;81;25623;-46
2020/12/20 05:10:40;;;;;;;57.35;26.25;;;;;;;1.93;89.26;101364.49;1758542;81;25660;-58
2020/12/20 05:13:08;;;;;;;57.15;26.20;;;;;;;1.91;89.19;101369.25;1758572;81;25772;-50
2020/12/20 05:15:35;;;;;;;59.50;26.62;;;;;;;1.90;89.27;101372.14;1758332;81;25560;-61
2020/12/20 05:18:14;;;;;;;55.73;26.52;;;;;;;1.88;89.23;101368.35;1758555;81;26301;-49
2020/12/20 05:20:46;;;;;;;58.52;25.27;;;;;;;1.88;89.28;101369.69;1744305;80;26570;-48
2020/12/20 05:23:16;;;;;;;67.47;27.98;;;;;;;1.89;89.31;101374.50;1728356;82;26005;-59
2020/12/20 05:25:44;;;;;;;62.35;26.35;;;;;;;1.89;89.33;101374.00;1728378;83;25808;-48
2020/12/20 05:28:19;;;;;;;64.42;27.85;;;;;;;1.89;89.29;101374.50;1728353;83;25585;-51
2020/12/20 05:30:48;;;;;;;61.50;26.93;;;;;;;1.88;89.30;101371.55;1728286;82;25667;-51
2020/12/20 05:33:27;;;;;;;59.40;27.40;;;;;;;1.86;89.27;101371.24;1728271;83;25676;-49
2020/12/20 05:36:07;;;;;;;63.85;27.40;;;;;;;1.84;89.30;101380.52;1728431;82;25739;-53
2020/12/20 05:38:36;;;;;;;58.17;26.25;;;;;;;1.83;89.39;101369.02;1728414;83;26444;-52
2020/12/20 05:41:04;;;;;;;56.33;25.05;;;;;;;1.82;89.35;101378.08;1728435;82;25622;-50
2020/12/20 05:43:31;;;;;;;58.65;25.48;;;;;;;1.81;89.35;101389.78;1728323;82;25779;-53
2020/12/20 05:45:58;;;;;;;61.35;28.07;;;;;;;1.79;89.35;101383.86;1728287;82;25700;-60
2020/12/20 05:48:29;;;;;;;60.35;26.15;;;;;;;1.79;89.44;101390.53;1728305;83;25740;-49
2020/12/20 05:51:08;;;;;;;63.63;28.12;;;;;;;1.78;89.42;101393.41;1728358;83;25759;-60
2020/12/20 05:53:35;;;;;;;62.13;29.27;;;;;;;1.78;89.48;101389.41;1728424;83;25615;-54
2020/12/20 05:56:04;;;;;;;50.30;24.20;;;;;;;1.80;89.54;101392.66;1728295;83;25695;-59
2020/12/20 05:58:34;;;;;;;60.95;26.95;;;;;;;1.80;89.57;101390.80;1728522;82;25712;-51
2020/12/20 06:01:02;;;;;;;64.17;27.67;;;;;;;1.79;89.53;101389.72;1728342;82;26242;-50
2020/12/20 06:03:29;;;;;;;62.40;25.70;;;;;;;1.80;89.55;101392.66;1728317;83;25945;-47
2020/12/20 06:06:00;;;;;;;69.92;27.75;;;;;;;1.80;89.54;101400.67;1728147;83;25718;-49
2020/12/20 06:08:32;;;;;;;59.33;25.97;;;;;;;1.80;89.56;101398.00;1728334;83;25621;-52
2020/12/20 06:11:03;;;;;;;68.30;29.02;;;;;;;1.81;89.59;101410.31;1728265;83;25584;-51
2020/12/20 06:13:30;;;;;;;72.78;29.82;;;;;;;1.80;89.59;101410.81;1728274;83;25616;-52
2020/12/20 06:15:58;;;;;;;63.17;27.67;;;;;;;1.81;89.63;101420.98;1729280;82;27073;-48
2020/12/20 06:18:29;;;;;;;67.65;28.17;;;;;;;1.80;89.56;101421.48;1732276;82;25656;-49
2020/12/20 06:21:01;;;;;;;66.67;29.07;;;;;;;1.79;89.57;101421.20;1715826;82;25589;-52
2020/12/20 06:23:31;;;;;;;64.72;28.77;;;;;;;1.80;89.63;101422.81;1701380;83;25631;-57
2020/12/20 06:26:00;;;;;;;63.70;28.10;;;;;;;1.80;89.65;101426.81;1701449;84;25641;-52
2020/12/20 06:28:30;;;;;;;64.97;28.35;;;;;;;1.80;89.65;101429.48;1701455;84;27188;-52
2020/12/20 06:30:58;;;;;;;63.95;29.00;;;;;;;1.81;89.68;101427.13;1701474;83;33848;-58
2020/12/20 06:33:50;;;;;;;63.90;27.90;;;;;;;1.82;89.69;101434.60;1701432;83;25605;-52
2020/12/20 06:36:17;;;;;;;70.12;31.37;;;;;;;1.82;89.73;101434.60;1701306;84;25640;-61
2020/12/20 06:38:53;;;;;;;76.02;30.72;;;;;;;1.82;89.67;101434.60;1701442;84;25727;-53
2020/12/20 06:41:36;;;;;;;66.57;29.25;;;;;;;1.83;89.70;101437.58;1699094;84;26868;-50
2020/12/20 06:44:16;;;;;;;65.67;28.92;;;;;;;1.85;89.75;101432.83;1700098;84;25682;-54
2020/12/20 06:46:45;;;;;;;;;;;;;;;1.86;89.78;101440.61;1703946;84;25727;-59
2020/12/20 06:49:40;;;;;;;68.83;28.45;;;;;;;1.91;89.85;101449.80;1701458;84;25671;-51
2020/12/20 06:52:30;;;;;;;64.37;29.00;;;;;;;1.90;89.78;101444.98;1701395;83;25652;-54
2020/12/20 06:55:05;;;;;;;69.32;30.32;;;;;;;1.90;89.79;101438.31;1701435;83;26238;-51
2020/12/20 06:57:32;;;;;;;69.70;30.77;;;;;;;1.91;89.77;101439.95;1698030;84;25808;-49
2020/12/20 06:59:59;;;;;;;71.22;31.62;;;;;;;1.92;89.68;101446.09;1701326;84;25740;-48
2020/12/20 07:02:50;;;;;;;65.97;29.70;;;;;;;1.89;89.70;101447.37;1701387;84;25720;-49
2020/12/20 07:05:43;;;;;;;76.00;32.78;;;;;;;1.92;89.78;101452.77;1701577;83;25696;-51
2020/12/20 07:08:25;;;;;;;64.07;30.25;;;;;;;1.90;89.76;101448.98;1701478;84;25711;-52
2020/12/20 07:10:59;;;;;;;69.55;30.45;;;;;;;1.91;89.77;101453.30;1701444;84;25669;-51
2020/12/20 07:13:39;;;;;;;68.20;29.25;;;;;;;1.92;89.74;101454.91;1700833;84;25711;-51
2020/12/20 07:16:12;;;;;;;71.60;29.87;;;;;;;1.90;89.69;101453.52;1695277;83;25731;-59
2020/12/20 07:18:55;;;;;;;74.95;32.00;;;;;;;1.88;89.74;101453.73;1669810;85;25686;-54
2020/12/20 07:21:32;;;;;;;68.28;30.77;;;;;;;1.91;89.88;101451.96;1687159;82;27304;-52
2020/12/20 07:24:17;;;;;;;75.57;33.15;;;;;;;1.92;89.94;101454.10;1699419;84;25689;-54
2020/12/20 07:26:46;;;;;;;81.45;34.00;;;;;;;1.92;89.82;101458.11;1699511;84;25598;-61
2020/12/20 07:29:14;;;;;;;79.17;35.08;;;;;;;1.88;89.76;101455.07;1699550;84;25710;-60
2020/12/20 07:31:42;;;;;;;82.72;35.30;;;;;;;1.89;89.78;101455.38;1699582;84;25643;-55
2020/12/20 07:34:09;;;;;;;91.10;34.65;;;;;;;1.88;89.78;101453.73;1697585;83;25736;-54
2020/12/20 07:36:38;;;;;;;85.65;35.58;;;;;;;1.86;89.73;101461.96;1707524;83;25629;-52
2020/12/20 07:39:06;;;;;;;86.17;35.60;;;;;;;1.87;89.79;101461.44;1696389;83;26047;-53
2020/12/20 07:41:35;;;;;;;82.57;34.88;;;;;;;1.86;89.77;101456.63;1697072;84;26490;-55
2020/12/20 07:44:07;;;;;;;83.22;35.50;;;;;;;1.86;89.72;101457.95;1704862;83;25731;-49
2020/12/20 07:46:35;;;;;;;83.90;34.08;;;;;;;1.85;89.72;101462.98;1698364;83;25803;-54
2020/12/20 07:49:08;;;;;;;83.52;34.30;;;;;;;1.85;89.71;101467.52;1711707;83;25698;-53
2020/12/20 07:51:38;;;;;;;81.32;34.60;;;;;;;1.85;89.77;101468.33;1700564;83;25909;-53
2020/12/20 07:54:12;;;;;;;81.47;33.13;;;;;;;1.84;89.74;101467.23;1712203;83;25678;-52
2020/12/20 07:56:47;;;;;;;77.60;34.60;;;;;;;1.82;89.64;101466.12;1711461;83;25753;-53
2020/12/20 07:59:19;;;;;;;81.65;35.30;;;;;;;1.83;89.71;101472.27;1709120;83;25783;-53
2020/12/20 08:01:47;;;;;;;77.50;34.27;;;;;;;1.81;89.67;101469.01;1697715;84;25782;-54
2020/12/20 08:04:19;;;;;;;86.22;35.20;;;;;;;1.82;89.73;101474.13;1695087;84;25728;-53
2020/12/20 08:06:53;;;;;;;81.15;34.10;;;;;;;1.79;89.63;101477.76;1699114;83;25787;-52
2020/12/20 08:09:26;;;;;;;74.42;33.58;;;;;;;1.79;89.66;101478.56;1699357;84;25689;-54
2020/12/20 08:11:55;;;;;;;71.57;33.00;;;;;;;1.79;89.54;101482.56;1698841;84;25846;-54
2020/12/20 08:14:24;;;;;;;81.12;33.95;;;;;;;1.74;89.51;101486.41;1698380;83;26120;-52
2020/12/20 08:16:52;;;;;;;80.43;34.50;;;;;;;1.76;89.63;101490.20;1705182;82;25678;-54
2020/12/20 08:19:28;;;;;;;85.73;35.33;;;;;;;1.74;89.57;101485.58;1709709;83;26324;-55
2020/12/20 08:22:09;;;;;;;77.32;33.92;;;;;;;1.72;89.58;101487.66;1735772;79;25778;-54
2020/12/20 08:24:38;;;;;;;79.87;34.25;;;;;;;1.74;89.67;101489.58;1738453;81;25725;-54
2020/12/20 08:27:31;;;;;;;78.22;33.63;;;;;;;1.76;89.71;101495.01;1747138;81;25792;-54
2020/12/20 08:30:04;;;;;;;78.52;34.38;;;;;;;1.75;89.65;101496.56;1745474;81;25951;-54
2020/12/20 08:32:43;;;;;;;74.40;34.27;;;;;;;1.75;89.64;101500.03;1748197;81;25676;-54
2020/12/20 08:35:21;;;;;;;81.40;34.30;;;;;;;1.72;89.56;101504.50;1750597;81;25708;-56
2020/12/20 08:37:55;;;;;;;88.20;36.17;;;;;;;1.70;89.54;101506.55;1746351;81;26112;-54
2020/12/20 08:40:22;;;;;;;87.40;35.85;;;;;;;1.72;89.66;101510.33;1743383;81;25750;-54
2020/12/20 08:42:54;;;;;;;80.25;33.67;;;;;;;1.71;89.68;101512.72;1736231;81;25656;-55
2020/12/20 08:45:23;;;;;;;78.47;33.85;;;;;;;1.67;89.62;101505.15;1735460;82;25991;-54
2020/12/20 08:47:50;;;;;;;77.82;35.00;;;;;;;1.69;89.82;101511.60;1738067;81;25574;-54
2020/12/20 08:50:25;;;;;;;81.10;35.25;;;;;;;1.70;89.86;101509.22;1736188;82;27745;-55
2020/12/20 08:53:04;;;;;;;85.03;34.92;;;;;;;1.74;89.93;101512.25;1734647;82;25682;-53
2020/12/20 08:55:32;;;;;;;79.12;33.73;;;;;;;1.76;90.03;101518.20;1734586;82;25803;-54
2020/12/20 08:58:05;;;;;;;73.45;33.42;;;;;;;1.77;89.99;101517.99;1736073;82;26406;-55
2020/12/20 09:00:34;;;;;;;75.97;32.40;;;;;;;1.79;89.96;101520.44;1736572;81;25807;-52
2020/12/20 09:03:03;;;;;;;67.63;32.03;;;;;;;1.79;89.91;101521.25;1732946;82;25821;-53
2020/12/20 09:05:33;;;;;;;76.70;33.80;;;;;;;1.79;89.93;101517.78;1736383;81;25759;-52
2020/12/20 09:08:00;;;;;;;73.22;32.78;;;;;;;1.80;89.97;101518.86;1732212;82;25726;-52
2020/12/20 09:10:32;;;;;;;65.10;30.70;;;;;;;1.80;90.00;101512.19;1736286;82;25696;-56
2020/12/20 09:13:04;;;;;;;63.55;30.92;;;;;;;1.82;89.95;101515.98;1732418;82;25783;-54
2020/12/20 09:15:34;;;;;;;65.67;31.57;;;;;;;1.80;89.96;101514.86;1735296;82;26755;-57
2020/12/20 09:18:08;;;;;;;68.45;31.55;;;;;;;1.85;90.14;101515.02;1724364;81;26428;-53
2020/12/20 09:20:45;;;;;;;68.03;32.57;;;;;;;1.95;90.20;101517.18;1870890;74;411644;-55
2020/12/20 09:23:24;;;;;;;60.20;29.20;;;;;;;1.92;90.11;101514.14;1831740;77;25686;-53
2020/12/20 09:26:02;;;;;;;73.10;31.85;;;;;;;1.92;90.09;101511.48;1845165;77;26245;-48
2020/12/20 09:28:33;;;;;;;66.13;31.10;;;;;;;1.93;90.09;101512.59;1841137;77;26330;-52
2020/12/20 09:31:05;;;;;;;71.97;33.45;;;;;;;1.94;90.04;101514.73;1829676;77;25750;-48
2020/12/20 09:33:38;;;;;;;63.13;31.77;;;;;;;1.93;90.04;101508.59;1833467;77;25660;-48
2020/12/20 09:36:14;;;;;;;69.92;32.35;;;;;;;1.93;90.01;101511.78;1804397;78;25758;-48
2020/12/20 09:38:51;;;;;;;69.60;31.82;;;;;;;1.95;90.09;101509.70;1790231;80;26355;-52
2020/12/20 09:41:25;;;;;;;70.03;33.70;;;;;;;1.98;90.11;101514.61;1791206;80;25624;-48
2020/12/20 09:43:53;;;;;;;73.50;34.90;;;;;;;2.00;90.19;101512.52;1791275;79;25735;-48
2020/12/20 09:46:28;;;;;;;78.80;33.38;;;;;;;2.04;90.27;101515.03;1791214;80;26226;-58
2020/12/20 09:48:57;;;;;;;72.25;33.48;;;;;;;2.09;90.33;101511.70;1791324;80;25597;-58
2020/12/20 09:51:25;;;;;;;69.25;32.28;;;;;;;2.11;90.26;101506.95;1790859;80;25702;-55
2020/12/20 09:53:53;;;;;;;70.15;32.35;;;;;;;2.15;90.25;101500.95;1790418;80;25590;-59
2020/12/20 09:56:20;;;;;;;73.52;33.75;;;;;;;2.18;90.26;101499.19;1790774;79;26347;-48
2020/12/20 09:58:47;;;;;;;72.08;32.60;;;;;;;2.22;90.16;101501.69;1790644;80;25569;-48
2020/12/20 10:01:23;;;;;;;76.65;33.08;;;;;;;2.23;90.03;101499.83;1790658;80;25624;-47
2020/12/20 10:03:50;;;;;;;74.67;34.05;;;;;;;2.23;89.97;101499.33;1790701;80;25781;-49
2020/12/20 10:06:18;;;;;;;69.92;33.65;;;;;;;2.27;90.15;101503.70;1790568;80;25632;-56
2020/12/20 10:08:45;;;;;;;73.65;33.48;;;;;;;2.32;90.15;101501.70;1790516;80;25629;-50
2020/12/20 10:11:19;;;;;;;69.87;32.73;;;;;;;2.33;89.97;101501.98;1790782;80;25900;-49
2020/12/20 10:13:48;;;;;;;72.20;33.73;;;;;;;2.35;90.01;101506.57;1790704;80;25593;-50
2020/12/20 10:16:19;;;;;;;72.90;33.63;;;;;;;2.38;89.93;101508.30;1790688;79;26334;-49
2020/12/20 10:18:46;;;;;;;71.30;31.45;;;;;;;2.38;89.90;101509.63;1790803;79;25811;-49
2020/12/20 10:21:16;;;;;;;72.37;33.45;;;;;;;2.42;89.95;101510.00;1794330;79;25629;-49
2020/12/20 10:23:43;;;;;;;77.87;34.58;;;;;;;2.45;89.96;101507.38;1794223;79;25653;-50
2020/12/20 10:26:11;;;;;;;75.22;36.65;;;;;;;2.48;89.91;101506.94;1794446;79;25709;-51
2020/12/20 10:28:38;;;;;;;75.17;34.05;;;;;;;2.49;89.85;101502.71;1794219;79;25758;-49
2020/12/20 10:31:05;;;;;;;67.27;32.90;;;;;;;2.50;89.78;101504.33;1793847;79;25628;-49
2020/12/20 10:33:32;;;;;;;77.05;33.55;;;;;;;2.51;89.66;101501.16;1790028;79;25783;-49
2020/12/20 10:35:59;;;;;;;68.80;32.03;;;;;;;2.51;89.68;101511.84;1790319;80;25578;-49
2020/12/20 10:38:25;;;;;;;71.55;33.53;;;;;;;2.52;89.63;101502.27;1790250;79;25849;-49
2020/12/20 10:40:52;;;;;;;75.57;35.30;;;;;;;2.54;89.65;101503.38;1790396;80;25711;-51
2020/12/20 10:43:18;;;;;;;75.85;33.90;;;;;;;2.57;89.80;101504.23;1790175;80;25891;-49
2020/12/20 10:45:45;;;;;;;68.80;32.35;;;;;;;2.56;89.55;101498.63;1788908;80;25791;-51
2020/12/20 10:48:12;;;;;;;75.20;34.35;;;;;;;2.56;89.43;101503.44;1788716;79;25656;-47
2020/12/20 10:50:38;;;;;;;68.90;30.80;;;;;;;2.55;89.41;101502.32;1788568;80;25867;-50
2020/12/20 10:53:05;;;;;;;71.28;31.60;;;;;;;2.53;89.30;101503.08;1788777;80;25721;-49
2020/12/20 10:55:32;;;;;;;71.22;29.40;;;;;;;2.50;89.21;101508.33;1788668;80;25709;-48
2020/12/20 10:57:59;;;;;;;66.33;31.65;;;;;;;2.48;89.24;101505.08;1788632;80;25589;-50
2020/12/20 11:00:25;;;;;;;68.90;30.48;;;;;;;2.47;89.22;101510.14;1785812;79;25658;-47
2020/12/20 11:02:52;;;;;;;69.80;32.38;;;;;;;2.43;89.16;101506.27;1792596;79;26390;-51
2020/12/20 11:05:19;;;;;;;70.17;32.30;;;;;;;2.39;89.25;101503.23;1795501;79;26669;-48
2020/12/20 11:07:46;;;;;;;68.17;34.00;;;;;;;2.41;89.33;101505.16;1795369;79;25590;-49
2020/12/20 11:10:13;;;;;;;71.47;32.67;;;;;;;2.42;89.47;101505.99;1795328;79;25633;-51
2020/12/20 11:12:39;;;;;;;72.00;32.60;;;;;;;2.43;89.35;101507.11;1795347;79;25701;-51
2020/12/20 11:15:06;;;;;;;75.97;31.40;;;;;;;2.41;89.36;101501.16;1795547;79;25661;-48
2020/12/20 11:17:33;;;;;;;69.25;31.12;;;;;;;2.42;89.40;101503.32;1795334;79;25710;-49
2020/12/20 11:20:00;;;;;;;75.92;34.25;;;;;;;2.43;89.41;101511.61;1778792;79;25883;-47
2020/12/20 11:22:26;;;;;;;75.05;33.15;;;;;;;2.42;89.35;101503.32;1755327;81;25640;-48
2020/12/20 11:24:53;;;;;;;73.90;33.18;;;;;;;2.41;89.24;101505.69;1755240;81;25619;-48
2020/12/20 11:27:20;;;;;;;75.12;33.53;;;;;;;2.41;89.19;101506.49;1755197;81;25678;-48